Lucky Lady — WDE6832 — position and weather

sailwx.info

Track history (hours):
 
Tides and Currents Weather Stations Pressure Air Temp Water Temp Dewpoint Dewpoint Depression Visibility Wind Speed Wind Dir Waves Ship Positions

Lucky Lady

Owner: Piling, Inc, TAXAS CITY, TX. More information available from US FCC via Universal Licensing System and Coast Guard Vessel Documentation Center.

Last reported at 2017-Oct-26 18:17 UTC. Time now 2017-Nov-24 00:22 UTC.
Position N 29°30' W 094°53'.
Warning: this ship's position is 28 days out of date.

; draft 3 m.

MMSI: 367385440.

Date/timePositionNaut miles runAvg speedWind from/ knotsBaromVisibWave heightAir tempDewpointWater temp
2017-Oct-26 18:17N 29°30' W 094°53'2 4.5
2017-Oct-26 17:56N 29°32' W 094°54'2 4.0
2017-Oct-26 17:30N 29°33' W 094°55'2 4.6
2017-Oct-26 17:00N 29°35' W 094°56'2 4.8
2017-Oct-26 16:30N 29°37' W 094°57'2 4.7
2017-Oct-26 16:00N 29°39' W 094°58'2 4.9
2017-Oct-26 15:30N 29°42' W 094°60'2 3.9
2017-Oct-26 14:54N 29°43' W 095°01'2 5.0
2017-Oct-26 14:30N 29°44' W 095°03'3 4.2
2017-Oct-26 13:49N 29°47' W 095°04'3 0.1
2017-Oct-25 17:11N 29°44' W 095°03'2 7.1
2017-Oct-25 16:52N 29°43' W 095°01'3 7.3
2017-Oct-25 16:30N 29°41' W 094°59'4 7.1
2017-Oct-25 16:00N 29°38' W 094°58'4 7.7
2017-Oct-25 15:30N 29°34' W 094°56'4 7.2
2017-Oct-25 14:56N 29°31' W 094°53'  
Track history (hours):
 
Tides and Currents Weather Stations Pressure Air Temp Water Temp Dewpoint Dewpoint Depression Visibility Wind Speed Wind Dir Waves Ship Positions

Lucky Lady

Owner: Piling, Inc, TAXAS CITY, TX. More information available from US FCC via Universal Licensing System and Coast Guard Vessel Documentation Center.

Last reported at 2017-Oct-26 18:17 UTC. Time now 2017-Nov-24 00:22 UTC.
Position N 29°30' W 094°53'.
Warning: this ship's position is 28 days out of date.

; draft 3 m.

MMSI: 367385440.

Date/timePositionNaut miles runAvg speedWind from/ knotsBaromVisibWave heightAir tempDewpointWater temp
2017-Oct-26 18:17N 29°30' W 094°53'2 4.5
2017-Oct-26 17:56N 29°32' W 094°54'2 4.0
2017-Oct-26 17:30N 29°33' W 094°55'2 4.6
2017-Oct-26 17:00N 29°35' W 094°56'2 4.8
2017-Oct-26 16:30N 29°37' W 094°57'2 4.7
2017-Oct-26 16:00N 29°39' W 094°58'2 4.9
2017-Oct-26 15:30N 29°42' W 094°60'2 3.9
2017-Oct-26 14:54N 29°43' W 095°01'2 5.0
2017-Oct-26 14:30N 29°44' W 095°03'3 4.2
2017-Oct-26 13:49N 29°47' W 095°04'3 0.1
2017-Oct-25 17:11N 29°44' W 095°03'2 7.1
2017-Oct-25 16:52N 29°43' W 095°01'3 7.3
2017-Oct-25 16:30N 29°41' W 094°59'4 7.1
2017-Oct-25 16:00N 29°38' W 094°58'4 7.7
2017-Oct-25 15:30N 29°34' W 094°56'4 7.2
2017-Oct-25 14:56N 29°31' W 094°53'  

Dump ship's entire track history